Time;durP1;ratioP1;P1;durP2;ratioP2;P2;SDS_P1;SDS_P2;PMS_P1;PMS_P2;Temp;Humidity;BMP_temperature;BMP_pressure;BME280_temperature;BME280_humidity;BME280_pressure;Samples;Min_cycle;Max_cycle;Signal;HPM_P1;HPM_P2
2022/08/18 00:02:20;;;;;;;7.30;4.90;;;;;;;26.19;67.37;100822.03;5040648;28;20045;-77
2022/08/18 00:04:54;;;;;;;10.63;5.50;;;;;;;25.77;67.49;100745.84;5041663;28;20044;-79
2022/08/18 00:07:29;;;;;;;9.00;4.80;;;;;;;26.28;67.43;100805.34;5041332;28;20075;-78
2022/08/18 00:09:57;;;;;;;9.32;5.95;;;;;;;26.25;67.84;100792.22;5045031;28;20494;-76
2022/08/18 00:12:31;;;;;;;9.05;6.35;;;;;;;26.03;67.23;100741.09;5044194;28;20618;-78
2022/08/18 00:15:04;;;;;;;7.65;5.47;;;;;;;26.18;68.18;100782.25;5051621;28;20555;-78
2022/08/18 00:17:32;;;;;;;15.50;5.63;;;;;;;25.88;67.83;100727.94;5062939;28;20059;-79
2022/08/18 00:19:59;;;;;;;10.98;6.22;;;;;;;26.09;67.60;100758.34;5060610;28;20148;-79
2022/08/18 00:22:26;;;;;;;9.88;6.28;;;;;;;26.17;67.28;100777.88;5060759;28;20104;-78
2022/08/18 00:24:55;;;;;;;9.50;5.97;;;;;;;26.11;67.97;100776.09;5060267;28;20754;-78
2022/08/18 00:27:25;;;;;;;14.55;6.43;;;;;;;26.10;68.33;100796.22;5060123;28;20178;-79
2022/08/18 00:29:55;;;;;;;12.25;6.32;;;;;;;26.07;68.26;100795.84;5061322;28;20062;-80
2022/08/18 00:32:26;;;;;;;10.32;6.03;;;;;;;26.06;68.30;100778.69;5060078;28;20204;-79
2022/08/18 00:34:53;;;;;;;10.52;5.97;;;;;;;25.99;68.46;100780.69;5061095;28;20189;-78
2022/08/18 00:37:22;;;;;;;11.88;6.30;;;;;;;26.01;68.23;100771.25;5061031;28;20055;-78
2022/08/18 00:39:51;;;;;;;15.23;6.32;;;;;;;26.12;67.60;100772.31;5060843;28;20084;-78
2022/08/18 00:42:28;;;;;;;7.28;5.55;;;;;;;25.92;67.78;100761.75;5060523;28;20590;-79
2022/08/18 00:45:00;;;;;;;6.93;6.03;;;;;;;25.85;68.05;100761.03;5060935;28;20168;-78
2022/08/18 00:47:28;;;;;;;12.48;6.53;;;;;;;25.89;68.46;100786.72;5059797;28;20051;-78
2022/08/18 00:50:21;;;;;;;14.23;6.50;;;;;;;25.82;69.33;100774.25;5060353;28;20519;-78
2022/08/18 00:53:25;;;;;;;14.30;7.50;;;;;;;25.62;68.49;100734.59;5060630;28;20136;-80
2022/08/18 00:55:53;;;;;;;12.05;6.18;;;;;;;25.68;68.14;100733.69;5028935;28;20127;-79
2022/08/18 00:58:31;;;;;;;13.93;6.75;;;;;;;25.87;68.01;100774.41;5060209;28;20055;-80
2022/08/18 01:01:04;;;;;;;13.03;6.57;;;;;;;25.89;67.71;100784.00;5060697;28;20389;-78
2022/08/18 01:03:33;;;;;;;8.00;5.97;;;;;;;25.85;67.79;100777.34;5065420;28;20129;-77
2022/08/18 01:06:10;;;;;;;12.85;6.63;;;;;;;25.77;67.34;100759.47;5064342;28;20158;-80
2022/08/18 01:08:39;;;;;;;13.32;5.43;;;;;;;25.85;66.63;100757.47;5064453;28;20055;-79
2022/08/18 01:11:06;;;;;;;7.68;5.82;;;;;;;25.79;66.03;100741.03;5064105;28;20059;-79
2022/08/18 01:13:34;;;;;;;9.95;5.80;;;;;;;25.64;66.80;100707.19;5064374;28;20505;-80
2022/08/18 01:21:49;;;;;;;13.55;7.50;;;;;;;25.94;67.04;100747.94;5064233;28;20060;-79
2022/08/18 01:21:50;;;;;;;16.20;8.38;;;;;;;25.84;68.14;100750.38;5064987;28;20526;-80
2022/08/18 01:24:20;;;;;;;14.18;8.20;;;;;;;25.73;67.88;100730.25;5063639;28;20059;-76
2022/08/18 01:26:50;;;;;;;11.77;8.82;;;;;;;25.35;68.41;100668.97;5066041;28;20044;-79
2022/08/18 01:29:18;;;;;;;16.05;7.90;;;;;;;25.78;68.09;100723.06;5067847;28;20051;-79
2022/08/18 01:31:55;;;;;;;14.88;7.72;;;;;;;25.21;68.67;100657.47;5068100;28;20140;-79
2022/08/18 01:34:25;;;;;;;11.50;7.78;;;;;;;25.57;68.64;100731.75;5068280;28;20058;-80
2022/08/18 01:36:52;;;;;;;14.18;7.45;;;;;;;25.61;68.45;100738.41;5068555;28;20670;-80
2022/08/18 01:39:20;;;;;;;10.90;7.28;;;;;;;25.66;68.58;100741.25;5069379;28;20566;-79
2022/08/18 01:42:07;;;;;;;9.73;7.55;;;;;;;25.62;68.90;100750.91;5068131;28;20629;-79
2022/08/18 01:44:34;;;;;;;16.52;7.05;;;;;;;25.56;68.95;100739.09;5067443;28;20437;-80
2022/08/18 01:47:00;;;;;;;13.68;7.40;;;;;;;25.28;68.43;100688.06;5067856;28;20344;-80
2022/08/18 01:49:27;;;;;;;11.85;8.10;;;;;;;25.12;68.96;100683.25;5067906;28;20143;-79
2022/08/18 01:51:54;;;;;;;12.77;7.25;;;;;;;25.34;69.38;100737.94;5067161;28;20063;-79
2022/08/18 01:54:21;;;;;;;12.05;7.32;;;;;;;25.32;70.10;100751.78;5067595;28;20048;-79
2022/08/18 01:56:48;;;;;;;13.75;7.97;;;;;;;25.16;69.93;100730.66;5067619;28;20079;-79
2022/08/18 01:59:15;;;;;;;10.02;8.00;;;;;;;25.52;70.09;100789.53;5067709;28;20152;-79
2022/08/18 02:01:44;;;;;;;13.82;8.50;;;;;;;25.44;69.67;100772.72;5067179;28;20531;-79
2022/08/18 02:04:22;;;;;;;15.07;7.70;;;;;;;25.55;70.19;100788.25;5067236;28;20055;-78
2022/08/18 02:07:04;;;;;;;13.50;8.00;;;;;;;25.58;69.68;100782.34;5067217;28;20169;-80
2022/08/18 02:09:32;;;;;;;10.13;7.80;;;;;;;25.64;69.43;100773.28;5067266;28;20659;-79
2022/08/18 02:12:00;;;;;;;9.80;8.65;;;;;;;25.64;69.24;100772.44;5068454;28;20510;-78
2022/08/18 02:14:26;;;;;;;9.25;7.97;;;;;;;25.62;69.51;100761.78;5070232;28;20056;-78
2022/08/18 02:16:57;;;;;;;15.85;9.15;;;;;;;25.65;69.38;100761.31;5067853;28;20062;-80
2022/08/18 02:19:32;;;;;;;13.63;9.48;;;;;;;25.48;69.73;100772.03;5066943;28;20078;-80
2022/08/18 02:21:59;;;;;;;19.30;9.25;;;;;;;25.38;69.66;100778.00;5067471;28;20051;-79
2022/08/18 02:24:26;;;;;;;13.02;10.30;;;;;;;25.37;69.90;100808.16;5067254;28;20047;-80
2022/08/18 02:26:53;;;;;;;17.52;10.90;;;;;;;25.33;69.55;100807.75;5066908;28;20577;-79
2022/08/18 02:29:19;;;;;;;12.73;9.68;;;;;;;25.11;69.32;100784.84;5066676;28;20448;-79
2022/08/18 02:31:46;;;;;;;14.82;9.60;;;;;;;25.42;69.46;100831.94;5066633;28;20048;-79
2022/08/18 02:34:14;;;;;;;20.00;10.65;;;;;;;25.42;69.78;100827.31;5067211;28;20137;-80
2022/08/18 02:36:41;;;;;;;15.23;9.25;;;;;;;25.43;69.88;100811.84;5068536;28;20185;-79
2022/08/18 02:39:07;;;;;;;21.98;9.95;;;;;;;25.40;69.51;100815.00;5067467;28;20083;-78
2022/08/18 02:41:35;;;;;;;17.90;9.00;;;;;;;25.46;69.47;100839.38;5067144;28;20051;-79
2022/08/18 02:44:03;;;;;;;16.58;10.38;;;;;;;25.42;69.14;100848.22;5068746;28;20055;-79
2022/08/18 02:46:30;;;;;;;14.32;9.60;;;;;;;25.46;69.07;100854.84;5068561;28;20048;-79
2022/08/18 02:48:59;;;;;;;26.92;10.45;;;;;;;25.36;68.72;100829.03;5066945;28;20048;-79
2022/08/18 02:51:26;;;;;;;16.83;9.30;;;;;;;25.48;68.59;100842.69;5066268;28;20298;-80
2022/08/18 02:53:53;;;;;;;12.43;7.32;;;;;;;25.53;67.85;100833.84;5068081;28;20190;-79
2022/08/18 02:56:23;;;;;;;11.18;6.07;;;;;;;25.53;65.91;100829.22;5066542;28;20075;-79
2022/08/18 02:59:10;;;;;;;8.13;4.97;;;;;;;25.48;64.86;100792.94;5059640;28;20089;-79
2022/08/18 03:01:39;;;;;;;10.25;5.38;;;;;;;25.50;64.80;100786.22;5047806;28;20052;-79
2022/08/18 03:04:08;;;;;;;11.93;5.22;;;;;;;25.38;63.64;100756.28;5046613;28;20060;-79
2022/08/18 03:06:36;;;;;;;13.25;5.18;;;;;;;25.48;63.11;100765.75;5046149;28;20134;-79
2022/08/18 03:09:05;;;;;;;9.32;5.18;;;;;;;25.31;63.79;100755.53;5045810;28;20044;-79
2022/08/18 03:11:32;;;;;;;9.93;6.30;;;;;;;25.29;64.14;100752.25;5045645;28;20045;-78
2022/08/18 03:14:00;;;;;;;11.68;6.60;;;;;;;25.28;64.60;100755.19;5045877;28;20933;-79
2022/08/18 03:16:30;;;;;;;11.23;6.45;;;;;;;25.26;64.49;100741.00;5047694;28;20052;-80
2022/08/18 03:18:57;;;;;;;13.20;6.40;;;;;;;25.40;64.30;100757.94;5045809;28;20080;-78
2022/08/18 03:21:27;;;;;;;12.55;6.35;;;;;;;25.33;64.83;100756.13;5047680;28;20184;-79
2022/08/18 03:23:56;;;;;;;11.10;6.15;;;;;;;25.28;65.32;100739.69;5045940;28;20587;-78
2022/08/18 03:26:28;;;;;;;9.18;5.78;;;;;;;24.99;64.84;100683.47;5045275;28;20530;-77
2022/08/18 03:28:56;;;;;;;7.18;5.50;;;;;;;25.10;65.10;100709.84;5047137;28;20484;-78
2022/08/18 03:31:24;;;;;;;9.20;5.97;;;;;;;25.32;65.25;100726.50;5045632;28;20333;-78
2022/08/18 03:33:55;;;;;;;5.93;4.95;;;;;;;25.27;65.30;100716.31;5045658;28;20169;-77
2022/08/18 03:36:28;;;;;;;9.20;5.50;;;;;;;24.93;65.92;100677.88;5045278;28;20048;-78
2022/08/18 03:38:55;;;;;;;11.20;6.53;;;;;;;25.17;65.51;100710.59;5047234;28;20387;-80
2022/08/18 03:41:26;;;;;;;12.18;5.22;;;;;;;25.31;65.73;100733.78;5045564;28;20656;-79
2022/08/18 03:44:14;;;;;;;7.18;6.18;;;;;;;25.23;66.02;100719.72;5045355;28;20310;-78
2022/08/18 03:46:42;;;;;;;10.00;6.20;;;;;;;25.15;66.63;100715.41;5044876;28;20187;-80
2022/08/18 03:49:09;;;;;;;8.70;6.80;;;;;;;25.00;66.63;100690.53;5044236;28;20084;-81
2022/08/18 03:51:37;;;;;;;11.73;6.00;;;;;;;25.07;67.16;100710.28;5044974;28;20543;-78
2022/08/18 03:54:04;;;;;;;9.55;6.03;;;;;;;25.04;66.92;100722.44;5045425;28;20165;-78
2022/08/18 03:56:36;;;;;;;16.63;6.22;;;;;;;24.84;67.35;100687.41;5044850;28;20083;-80
2022/08/18 03:59:10;;;;;;;13.75;7.18;;;;;;;24.71;67.62;100663.97;5051915;28;20051;-79
2022/08/18 04:01:40;;;;;;;11.65;6.50;;;;;;;24.53;67.48;100636.84;5065055;28;20586;-79
2022/08/18 04:04:11;;;;;;;10.85;7.30;;;;;;;24.96;67.75;100709.19;5065420;28;20048;-78
2022/08/18 04:07:03;;;;;;;11.13;6.82;;;;;;;25.02;67.29;100721.84;5066656;28;20657;-77
2022/08/18 04:09:31;;;;;;;14.60;7.03;;;;;;;24.66;67.59;100682.00;5065372;28;20532;-78
2022/08/18 04:12:10;;;;;;;11.88;7.22;;;;;;;25.05;67.04;100737.69;5067094;28;20113;-78
2022/08/18 04:14:42;;;;;;;11.30;6.35;;;;;;;24.85;67.77;100748.78;5067968;28;20199;-77
2022/08/18 04:17:09;;;;;;;10.55;7.13;;;;;;;24.95;67.96;100757.25;5068601;28;20082;-78
2022/08/18 04:19:36;;;;;;;13.68;8.10;;;;;;;25.00;67.26;100717.69;5065806;28;20352;-81
2022/08/18 04:22:04;;;;;;;15.10;7.82;;;;;;;24.93;67.03;100686.03;5066291;28;20562;-79
2022/08/18 04:24:33;;;;;;;12.07;7.55;;;;;;;24.77;67.22;100667.66;5065406;28;20720;-79
2022/08/18 04:27:03;;;;;;;8.23;7.38;;;;;;;24.95;67.81;100692.06;5065379;28;20121;-80
2022/08/18 04:29:30;;;;;;;13.85;8.25;;;;;;;24.96;68.01;100684.75;5066339;28;20772;-80
2022/08/18 04:32:00;;;;;;;16.52;7.22;;;;;;;24.99;67.85;100670.69;5065209;28;20063;-79
2022/08/18 04:34:27;;;;;;;12.38;8.07;;;;;;;25.05;67.66;100658.09;5065187;28;20066;-79
2022/08/18 04:36:53;;;;;;;8.55;7.68;;;;;;;24.66;67.59;100603.28;5064606;28;20062;-79
2022/08/18 04:39:21;;;;;;;16.58;7.93;;;;;;;24.99;67.77;100648.16;5064912;28;20044;-80
2022/08/18 04:41:48;;;;;;;11.23;8.00;;;;;;;24.77;67.79;100617.97;5064852;28;20055;-79
2022/08/18 04:44:17;;;;;;;14.50;8.57;;;;;;;24.92;67.99;100649.06;5064582;28;20395;-79
2022/08/18 04:46:52;;;;;;;14.57;7.88;;;;;;;24.61;68.05;100603.97;5066109;28;20490;-79
2022/08/18 04:49:24;;;;;;;14.40;7.05;;;;;;;24.90;68.14;100623.19;5064467;28;20461;-78
2022/08/18 04:55:00;;;;;;;17.10;7.97;;;;;;;25.05;67.47;100636.34;5065949;28;20325;-79
2022/08/18 04:57:27;;;;;;;16.25;8.13;;;;;;;24.61;67.33;100576.00;5063678;28;20625;-79
2022/08/18 04:59:59;;;;;;;14.35;7.65;;;;;;;25.01;67.46;100635.19;5049582;28;20045;-79
2022/08/18 05:02:26;;;;;;;11.93;7.85;;;;;;;25.10;67.17;100639.22;5044147;28;20063;-78
2022/08/18 05:04:53;;;;;;;13.63;7.90;;;;;;;24.97;67.18;100623.13;5043449;28;20162;-79
2022/08/18 05:07:24;;;;;;;10.10;7.97;;;;;;;24.94;67.66;100636.09;5044032;28;20153;-79
2022/08/18 05:09:53;;;;;;;15.10;8.43;;;;;;;24.81;67.30;100624.56;5043345;28;20098;-80
2022/08/18 05:12:21;;;;;;;11.90;7.60;;;;;;;25.15;67.27;100670.06;5044198;28;20151;-78
2022/08/18 05:14:52;;;;;;;17.27;7.35;;;;;;;25.03;66.66;100639.31;5044124;28;20274;-77
2022/08/18 05:17:19;;;;;;;11.18;7.03;;;;;;;25.00;66.83;100634.34;5042808;28;20119;-78
2022/08/18 05:19:46;;;;;;;14.13;7.75;;;;;;;25.22;67.63;100689.03;5042954;28;20558;-79
2022/08/18 05:22:18;;;;;;;14.57;7.47;;;;;;;25.29;66.67;100687.03;5043145;28;20057;-77
2022/08/18 05:24:53;;;;;;;14.48;7.38;;;;;;;25.32;66.91;100675.69;5044951;28;20083;-78
2022/08/18 05:27:20;;;;;;;11.48;7.35;;;;;;;25.25;66.93;100666.81;5042679;28;20374;-79
2022/08/18 05:29:47;;;;;;;9.65;6.88;;;;;;;25.20;66.99;100647.66;5042608;28;20559;-79
2022/08/18 05:32:17;;;;;;;10.63;7.60;;;;;;;25.20;66.74;100655.00;5044376;28;20733;-79
2022/08/18 05:35:09;;;;;;;18.25;7.72;;;;;;;25.19;67.22;100665.00;5043750;28;20052;-78
2022/08/18 05:38:07;;;;;;;10.90;7.93;;;;;;;25.19;67.41;100659.56;5043471;28;20114;-79
2022/08/18 05:40:33;;;;;;;17.05;9.75;;;;;;;25.17;68.73;100656.25;5043671;28;20076;-78
2022/08/18 05:43:02;;;;;;;17.63;11.00;;;;;;;25.19;69.40;100661.47;5043843;28;20059;-77
2022/08/18 05:45:29;;;;;;;19.85;10.70;;;;;;;25.15;69.01;100664.63;5044111;28;20203;-77
2022/08/18 05:48:00;;;;;;;17.85;10.32;;;;;;;25.07;69.09;100651.34;5047586;28;20242;-79
2022/08/18 05:50:30;;;;;;;23.25;10.98;;;;;;;24.74;69.28;100616.53;5049894;28;20056;-78
2022/08/18 05:53:02;;;;;;;12.68;9.95;;;;;;;25.07;69.86;100673.09;5049208;28;20604;-78
2022/08/18 05:58:36;;;;;;;18.45;11.77;;;;;;;24.93;69.80;100679.78;5052038;28;20719;-78
2022/08/18 06:01:11;;;;;;;21.35;11.45;;;;;;;25.02;69.85;100702.00;5064295;28;20054;-80
2022/08/18 06:04:16;;;;;;;20.98;12.23;;;;;;;24.90;70.54;100694.66;5063831;28;20048;-78
2022/08/18 06:06:44;;;;;;;24.50;12.68;;;;;;;24.88;70.13;100699.47;5047226;28;20164;-78
2022/08/18 06:09:21;;;;;;;26.63;14.38;;;;;;;24.99;71.27;100726.91;5063377;28;20055;-78
2022/08/18 06:11:49;;;;;;;29.00;16.17;;;;;;;25.03;71.29;100730.84;5062446;28;20414;-79
2022/08/18 06:14:16;;;;;;;25.45;16.15;;;;;;;25.05;72.33;100734.97;5066136;28;20067;-78
2022/08/18 06:17:04;;;;;;;22.52;16.55;;;;;;;25.03;72.94;100725.41;5067724;28;20071;-80
2022/08/18 06:20:00;;;;;;;33.72;16.83;;;;;;;25.00;73.68;100725.84;5070487;28;20058;-80
2022/08/18 06:23:09;;;;;;;29.55;17.27;;;;;;;24.81;73.91;100712.31;5067808;28;20538;-79
2022/08/18 06:25:44;;;;;;;30.10;17.77;;;;;;;24.61;73.68;100681.84;5066433;28;20067;-80
2022/08/18 06:28:14;;;;;;;25.83;15.13;;;;;;;24.56;72.94;100693.38;5066307;28;20443;-79
2022/08/18 06:30:41;;;;;;;19.80;11.77;;;;;;;24.59;72.36;100711.94;5065982;28;20473;-79
2022/08/18 06:33:30;;;;;;;19.77;11.02;;;;;;;24.93;72.39;100759.34;5067151;28;20347;-79
2022/08/18 06:36:34;;;;;;;15.63;10.63;;;;;;;24.98;71.38;100726.09;5066552;28;20102;-78
2022/08/18 06:39:25;;;;;;;16.92;9.27;;;;;;;25.01;71.30;100711.22;5063154;28;20071;-79
2022/08/18 06:41:53;;;;;;;18.73;10.50;;;;;;;25.04;70.80;100727.06;5068512;28;20086;-79
2022/08/18 06:44:27;;;;;;;20.00;10.27;;;;;;;24.64;70.58;100667.84;5066179;28;20552;-79
2022/08/18 06:47:05;;;;;;;15.63;10.60;;;;;;;24.85;70.96;100713.47;5065742;28;20052;-78
2022/08/18 06:49:55;;;;;;;15.57;10.38;;;;;;;25.02;71.00;100740.03;5066625;28;20381;-79
2022/08/18 06:52:28;;;;;;;18.02;10.20;;;;;;;25.05;70.66;100750.41;5067036;28;20136;-79
2022/08/18 06:55:02;;;;;;;17.60;11.00;;;;;;;25.00;70.71;100748.41;5066337;28;20079;-80
2022/08/18 06:57:34;;;;;;;20.88;11.23;;;;;;;24.83;70.89;100729.19;5066810;28;20168;-79
2022/08/18 07:00:22;;;;;;;20.90;11.05;;;;;;;24.95;70.72;100757.25;5067672;28;20677;-80
2022/08/18 07:03:06;;;;;;;16.40;10.98;;;;;;;25.07;69.93;100779.00;5066354;28;20501;-79
2022/08/18 07:05:35;;;;;;;13.60;10.18;;;;;;;25.15;69.18;100784.16;5066413;28;20170;-79
2022/08/18 07:08:11;;;;;;;14.48;10.32;;;;;;;24.98;70.54;100783.13;5067447;28;20229;-79
2022/08/18 07:10:39;;;;;;;18.30;12.40;;;;;;;24.93;70.24;100764.78;5065768;28;20247;-78
2022/08/18 07:13:27;;;;;;;16.48;11.50;;;;;;;25.01;70.27;100789.97;5059165;28;20505;-77
2022/08/18 07:16:20;;;;;;;28.17;13.82;;;;;;;24.99;70.70;100781.22;5065681;28;20589;-78
2022/08/18 07:19:14;;;;;;;19.33;12.75;;;;;;;24.72;71.52;100778.81;5067027;28;20058;-78
2022/08/18 07:21:43;;;;;;;21.25;12.45;;;;;;;24.60;72.09;100758.91;5066365;28;20056;-79
2022/08/18 07:24:25;;;;;;;16.42;12.27;;;;;;;24.72;72.37;100767.97;5067328;28;20599;-79
2022/08/18 07:27:06;;;;;;;22.60;13.48;;;;;;;24.56;72.07;100715.09;5065721;28;20082;-78
2022/08/18 07:29:38;;;;;;;20.10;12.55;;;;;;;24.78;72.06;100720.06;5067316;28;20317;-77
2022/08/18 07:32:12;;;;;;;18.33;12.65;;;;;;;24.72;72.01;100717.19;5067273;28;20601;-77
2022/08/18 07:34:52;;;;;;;31.17;13.25;;;;;;;23.96;71.49;100606.38;5065222;28;20483;-77
2022/08/18 07:37:33;;;;;;;24.23;14.50;;;;;;;24.60;72.49;100731.75;5064899;28;20048;-78
2022/08/18 07:40:09;;;;;;;22.67;14.02;;;;;;;24.67;72.95;100717.06;5065036;28;20084;-78
2022/08/18 07:42:55;;;;;;;26.70;14.02;;;;;;;24.63;72.69;100677.03;5067258;28;20169;-77
2022/08/18 07:45:34;;;;;;;;;;;;;;;24.70;72.34;100721.19;5065464;28;20079;-78
2022/08/18 07:48:15;;;;;;;20.75;14.32;;;;;;;24.37;71.87;100673.53;5064839;28;20159;-77
2022/08/18 07:51:12;;;;;;;23.98;15.00;;;;;;;24.68;72.23;100726.03;5066308;28;20048;-78
2022/08/18 07:54:09;;;;;;;20.05;15.23;;;;;;;24.65;71.82;100726.47;5065503;28;20052;-78
2022/08/18 07:57:32;;;;;;;24.40;14.85;;;;;;;24.85;71.59;100746.06;5064760;28;20161;-78
2022/08/18 08:00:17;;;;;;;23.58;16.23;;;;;;;24.71;71.38;100693.84;5040398;28;20064;-79
2022/08/18 08:03:46;;;;;;;22.95;15.80;;;;;;;24.91;71.07;100707.16;5044682;28;20055;-78
2022/08/18 08:06:36;;;;;;;33.78;15.68;;;;;;;24.74;71.35;100679.81;5024383;28;20569;-80
2022/08/18 08:09:28;;;;;;;32.53;16.15;;;;;;;24.77;72.11;100726.56;5044159;28;20535;-76
2022/08/18 08:11:59;;;;;;;25.17;16.58;;;;;;;24.70;71.79;100699.47;5045087;28;20064;-79
2022/08/18 08:14:41;;;;;;;28.35;17.60;;;;;;;24.78;71.99;100663.88;5065675;28;20557;-79
2022/08/18 08:17:23;;;;;;;26.55;17.67;;;;;;;24.81;71.94;100652.56;5064505;28;20649;-80
2022/08/18 08:20:08;;;;;;;25.08;17.02;;;;;;;24.80;71.79;100656.34;5058253;28;20455;-79
2022/08/18 08:23:16;;;;;;;27.58;19.15;;;;;;;24.79;71.77;100681.84;5057954;28;20136;-80
2022/08/18 08:26:11;;;;;;;33.15;19.90;;;;;;;24.97;71.19;100688.28;5056069;28;20054;-80
2022/08/18 08:29:17;;;;;;;28.13;18.25;;;;;;;24.76;71.92;100676.03;5055715;28;20106;-79
2022/08/18 08:31:43;;;;;;;27.08;19.33;;;;;;;24.46;71.98;100622.53;5056661;28;20488;-78
2022/08/18 08:34:41;;;;;;;27.80;18.65;;;;;;;24.67;72.56;100683.66;5065178;28;20580;-80
2022/08/18 08:37:14;;;;;;;30.50;17.77;;;;;;;24.56;73.01;100649.13;5064710;28;20411;-79
2022/08/18 08:39:53;;;;;;;24.23;18.17;;;;;;;24.41;72.69;100574.34;5064219;28;20148;-80
2022/08/18 08:42:25;;;;;;;28.48;19.40;;;;;;;24.75;72.64;100620.91;5064445;28;20051;-80
2022/08/18 08:45:09;;;;;;;28.65;19.38;;;;;;;24.37;73.17;100623.84;5065057;28;20044;-78
2022/08/18 08:47:42;;;;;;;32.47;21.63;;;;;;;24.92;72.88;100727.00;5066082;28;20200;-79
2022/08/18 08:50:20;;;;;;;28.23;21.90;;;;;;;24.86;73.51;100758.59;5064240;28;20150;-79
2022/08/18 08:52:57;;;;;;;25.80;20.60;;;;;;;24.69;74.12;100785.53;5064181;28;20105;-79
2022/08/18 08:55:31;;;;;;;26.60;20.02;;;;;;;24.55;74.87;100808.44;5064097;28;20454;-79
2022/08/18 08:58:07;;;;;;;32.90;20.15;;;;;;;24.54;74.17;100804.06;5064398;28;20463;-79
2022/08/18 09:00:37;;;;;;;30.50;18.10;;;;;;;24.55;75.05;100796.75;5044239;28;20048;-79
2022/08/18 09:03:22;;;;;;;39.13;19.92;;;;;;;24.82;75.50;100846.97;5044466;28;20130;-80
2022/08/18 09:05:59;;;;;;;32.92;19.92;;;;;;;24.18;75.73;100755.97;5044603;28;20479;-80
2022/08/18 09:08:53;;;;;;;30.60;20.13;;;;;;;24.92;74.80;100850.00;5044112;28;20328;-80
2022/08/18 09:11:26;;;;;;;25.65;20.02;;;;;;;24.67;77.94;100781.38;5044380;28;20155;-80
2022/08/18 09:14:00;;;;;;;35.60;20.27;;;;;;;24.56;77.45;100773.97;5043871;28;20055;-81
2022/08/18 09:17:01;;;;;;;36.05;20.70;;;;;;;24.44;77.69;100766.56;5046942;28;20126;-79
2022/08/18 09:19:52;;;;;;;30.25;19.85;;;;;;;24.47;78.66;100787.84;5045344;28;20069;-79
2022/08/18 09:22:35;;;;;;;34.80;19.85;;;;;;;24.23;78.55;100758.81;5044102;28;20155;-80
2022/08/18 09:25:09;;;;;;;33.85;19.38;;;;;;;24.56;78.92;100820.09;5044584;28;20146;-80
2022/08/18 09:27:40;;;;;;;27.92;19.65;;;;;;;24.43;77.04;100791.19;5044448;28;20157;-79
2022/08/18 09:30:43;;;;;;;30.53;16.93;;;;;;;24.68;77.62;100918.75;5044753;28;20052;-78
2022/08/18 09:33:13;;;;;;;32.95;17.67;;;;;;;24.93;76.20;101030.09;5044553;28;20306;-82
2022/08/18 09:36:09;;;;;;;26.80;16.42;;;;;;;24.78;78.47;100832.19;5047523;28;20555;-85
2022/08/18 09:41:58;;;;;;;15.13;9.65;;;;;;;24.62;78.15;100816.50;5062569;28;20143;-88
2022/08/18 09:44:46;;;;;;;12.25;9.30;;;;;;;24.18;79.97;100804.78;5067680;28;20102;-86
2022/08/18 09:47:19;;;;;;;13.07;7.60;;;;;;;24.32;79.04;100803.59;5067311;28;20071;-85
2022/08/18 09:50:11;;;;;;;13.02;5.05;;;;;;;24.25;76.61;100724.19;5069771;28;20051;-83
2022/08/18 09:52:55;;;;;;;8.88;2.97;;;;;;;24.20;74.19;100684.16;5068686;28;20435;-84
2022/08/18 09:55:23;;;;;;;4.75;2.80;;;;;;;24.16;73.55;100692.97;5069099;28;20052;-85
2022/08/18 09:58:38;;;;;;;8.48;2.67;;;;;;;23.91;72.08;100620.63;5069322;28;20116;-83
2022/08/18 10:01:20;;;;;;;8.30;2.05;;;;;;;23.65;69.78;100617.06;5030212;28;20048;-82
2022/08/18 10:04:31;;;;;;;9.52;2.00;;;;;;;23.46;71.80;100559.28;5046739;28;20063;-82
2022/08/18 10:07:18;;;;;;;5.38;1.95;;;;;;;22.99;71.13;100438.94;4985961;28;20569;-83
2022/08/18 10:10:06;;;;;;;6.35;1.92;;;;;;;22.95;71.42;100402.47;4971582;28;20210;-84
2022/08/18 10:12:55;;;;;;;5.20;1.80;;;;;;;23.32;69.71;100478.38;5046539;28;20048;-83
2022/08/18 10:15:46;;;;;;;6.15;1.63;;;;;;;23.20;71.78;100462.03;5051189;28;20056;-82
2022/08/18 10:18:35;;;;;;;6.70;2.90;;;;;;;23.15;71.59;100438.34;5059494;28;20060;-84
2022/08/18 10:21:20;;;;;;;6.28;2.40;;;;;;;23.06;72.87;100418.03;5066206;28;20135;-80
2022/08/18 10:24:01;;;;;;;7.78;2.40;;;;;;;22.75;72.49;100373.72;5056795;28;20064;-81
2022/08/18 10:26:48;;;;;;;9.95;2.72;;;;;;;22.97;75.12;100457.22;5047086;28;20103;-81
2022/08/18 10:30:04;;;;;;;7.65;2.15;;;;;;;22.75;74.19;100444.09;5048472;28;20267;-79
2022/08/18 10:32:41;;;;;;;10.15;2.30;;;;;;;22.88;74.59;100453.13;5046574;28;20060;-80
2022/08/18 10:35:55;;;;;;;7.05;2.65;;;;;;;22.56;74.17;100372.03;5048336;28;20056;-80
2022/08/18 10:38:25;;;;;;;7.00;2.28;;;;;;;23.03;74.76;100456.38;5044059;28;20141;-80
2022/08/18 10:41:18;;;;;;;6.35;2.40;;;;;;;23.10;73.95;100451.72;5047766;28;20045;-80
2022/08/18 10:43:48;;;;;;;10.55;3.00;;;;;;;23.01;74.23;100463.88;5046270;28;20522;-77
2022/08/18 10:46:30;;;;;;;4.47;2.42;;;;;;;22.99;74.64;100499.31;5046359;28;20049;-79
2022/08/18 10:49:11;;;;;;;6.97;2.55;;;;;;;22.93;72.77;100505.56;5045831;28;20163;-79
2022/08/18 10:51:57;;;;;;;11.40;1.92;;;;;;;22.66;71.22;100426.47;5046246;28;20562;-79
2022/08/18 10:54:41;;;;;;;6.65;2.20;;;;;;;23.30;72.06;100521.94;5062888;28;20040;-79
2022/08/18 10:57:48;;;;;;;9.10;1.95;;;;;;;23.31;71.57;100506.53;5045138;28;20056;-79
2022/08/18 11:00:21;;;;;;;9.23;2.50;;;;;;;23.56;72.13;100541.72;5037054;28;20238;-80
2022/08/18 11:02:59;;;;;;;4.63;1.88;;;;;;;23.69;69.12;100552.44;5045993;28;20412;-80
2022/08/18 11:05:46;;;;;;;7.63;2.33;;;;;;;23.82;69.00;100527.09;5046162;28;20062;-80
2022/08/18 11:08:18;;;;;;;6.03;2.13;;;;;;;24.01;68.19;100523.31;5059456;28;20048;-81
2022/08/18 11:10:49;;;;;;;5.32;2.08;;;;;;;24.13;68.52;100514.41;5068412;28;20055;-81
2022/08/18 11:14:06;;;;;;;4.13;2.23;;;;;;;24.47;69.59;100570.75;5066464;28;20052;-81
2022/08/18 11:16:55;;;;;;;7.07;2.25;;;;;;;24.28;67.56;100506.72;5065580;28;20508;-81
2022/08/18 11:19:22;;;;;;;8.40;2.30;;;;;;;24.46;68.22;100522.13;5066623;28;20119;-82
2022/08/18 11:21:51;;;;;;;8.25;2.22;;;;;;;25.28;66.44;100586.72;5065720;28;20658;-81
2022/08/18 11:24:24;;;;;;;6.50;2.30;;;;;;;25.35;65.22;100601.84;5065770;28;20128;-81
2022/08/18 11:26:53;;;;;;;6.13;2.47;;;;;;;25.46;64.33;100593.94;5065490;28;20644;-80
2022/08/18 11:29:25;;;;;;;6.15;1.52;;;;;;;25.58;62.72;100592.91;5065353;28;20160;-81
2022/08/18 11:32:00;;;;;;;4.45;2.13;;;;;;;25.87;62.11;100573.19;5067241;28;20198;-80
2022/08/18 11:34:43;;;;;;;6.43;1.98;;;;;;;25.93;62.89;100564.06;5065682;28;20589;-81
2022/08/18 11:37:26;;;;;;;3.58;1.75;;;;;;;26.11;61.47;100572.06;5066004;28;20054;-82
2022/08/18 11:39:56;;;;;;;6.85;1.60;;;;;;;26.03;60.79;100526.22;5067594;28;20055;-82
2022/08/18 11:42:32;;;;;;;8.13;1.77;;;;;;;26.04;60.03;100503.38;5065505;28;20055;-81
2022/08/18 11:45:17;;;;;;;5.47;1.92;;;;;;;26.42;58.39;100548.19;5065365;28;20431;-80
2022/08/18 11:48:19;;;;;;;3.83;0.93;;;;;;;26.56;57.05;100555.03;5059098;28;20062;-81
2022/08/18 11:51:16;;;;;;;4.47;0.90;;;;;;;26.80;57.20;100553.03;5065644;28;20544;-82
2022/08/18 11:53:56;;;;;;;5.85;1.10;;;;;;;26.89;56.83;100537.09;5065514;28;20066;-82
2022/08/18 11:56:33;;;;;;;8.43;1.25;;;;;;;27.10;60.18;100540.19;5065537;28;20079;-81
2022/08/18 11:59:31;;;;;;;4.13;1.23;;;;;;;27.31;57.01;100555.81;5056841;28;20495;-82
2022/08/18 12:02:19;;;;;;;8.05;2.20;;;;;;;27.29;55.69;100533.44;5045775;28;20214;-80
2022/08/18 12:04:51;;;;;;;2.55;1.10;;;;;;;27.20;54.97;100510.41;5045307;28;20565;-80
2022/08/18 12:07:34;;;;;;;7.07;1.20;;;;;;;27.72;53.67;100561.88;5045026;28;20060;-83
2022/08/18 12:10:16;;;;;;;9.25;2.55;;;;;;;27.81;54.20;100571.25;5044924;28;20540;-82
2022/08/18 12:12:51;;;;;;;7.20;2.15;;;;;;;27.88;56.65;100554.75;5044743;28;20662;-80
2022/08/18 12:15:19;;;;;;;4.35;1.65;;;;;;;28.08;57.24;100576.00;5045223;28;20057;-82